Time;durP1;ratioP1;P1;durP2;ratioP2;P2;SDS_P1;SDS_P2;PMS_P1;PMS_P2;Temp;Humidity;BMP_temperature;BMP_pressure;BME280_temperature;BME280_humidity;BME280_pressure;Samples;Min_cycle;Max_cycle;Signal;HPM_P1;HPM_P2
2021/05/25 00:02:20;;;;;;;;;;;;;;;20.07;53.61;101656.31;5068844;28;1284;-67
2021/05/25 00:05:06;;;;;;;;;;;;;;;20.04;53.48;101650.31;5069236;28;1040;-68
2021/05/25 00:07:52;;;;;;;;;;;;;;;20.03;53.45;101653.91;5069055;28;628;-67
2021/05/25 00:10:37;;;;;;;;;;;;;;;20.03;53.55;101656.56;5069505;28;1272;-66
2021/05/25 00:13:22;;;;;;;;;;;;;;;20.01;53.50;101659.28;5069147;28;709;-67
2021/05/25 00:16:08;;;;;;;;;;;;;;;20.07;53.59;101664.25;5069305;28;1897;-67
2021/05/25 00:18:54;;;;;;;;;;;;;;;20.04;53.47;101648.53;5068634;28;1063;-67
2021/05/25 00:21:39;;;;;;;;;;;;;;;20.01;53.89;101659.28;5069011;28;1361;-67
2021/05/25 00:24:24;;;;;;;;;;;;;;;20.00;53.81;101659.34;5068578;28;948;-66
2021/05/25 00:27:10;;;;;;;;;;;;;;;20.01;53.80;101656.63;5068817;28;1283;-66
2021/05/25 00:29:55;;;;;;;;;;;;;;;19.99;53.93;101662.91;5068559;28;1076;-66
2021/05/25 00:32:41;;;;;;;;;;;;;;;19.97;53.97;101660.34;5068980;28;1232;-66
2021/05/25 00:35:28;;;;;;;;;;;;;;;20.00;54.09;101654.91;5053201;28;1338;-66
2021/05/25 00:38:13;;;;;;;;;;;;;;;19.96;54.12;101656.00;5053389;28;1914;-66
2021/05/25 00:40:58;;;;;;;;;;;;;;;19.95;54.15;101649.00;5069074;28;1337;-66
2021/05/25 00:43:44;;;;;;;;;;;;;;;19.95;54.16;101646.34;5068500;28;770;-65
2021/05/25 00:46:29;;;;;;;;;;;;;;;19.92;54.23;101661.50;5068266;28;1271;-68
2021/05/25 00:49:14;;;;;;;;;;;;;;;19.91;54.21;101662.44;5068070;28;1171;-68
2021/05/25 00:51:59;;;;;;;;;;;;;;;19.87;54.44;101659.09;5052917;28;1260;-69
2021/05/25 00:54:44;;;;;;;;;;;;;;;19.85;54.63;101654.81;5068468;28;1084;-68
2021/05/25 00:57:30;;;;;;;;;;;;;;;19.89;54.27;101654.56;5068176;28;1979;-69
2021/05/25 01:00:36;;;;;;;;;;;;;;;19.82;54.29;101650.50;5068956;28;1121;-68
2021/05/25 01:03:22;;;;;;;;;;;;;;;19.82;54.36;101655.78;5068349;28;654;-68
2021/05/25 01:06:07;;;;;;;;;;;;;;;19.85;54.41;101652.97;5068660;28;1347;-68
2021/05/25 01:08:52;;;;;;;;;;;;;;;19.84;54.44;101647.78;5068566;28;1053;-68
2021/05/25 01:11:40;;;;;;;;;;;;;;;19.83;54.37;101641.63;5068514;28;1240;-68
2021/05/25 01:14:26;;;;;;;;;;;;;;;19.78;54.57;101648.94;5068394;28;1083;-69
2021/05/25 01:17:11;;;;;;;;;;;;;;;19.80;54.39;101644.44;5068322;28;1979;-68
2021/05/25 01:19:58;;;;;;;;;;;;;;;19.77;54.53;101641.94;5068623;28;969;-68
2021/05/25 01:22:43;;;;;;;;;;;;;;;19.78;54.55;101643.66;5068506;28;1347;-69
2021/05/25 01:25:29;;;;;;;;;;;;;;;19.75;54.60;101646.44;5068620;28;1224;-68
2021/05/25 01:28:15;;;;;;;;;;;;;;;19.75;54.69;101641.16;5068170;28;799;-69
2021/05/25 01:31:01;;;;;;;;;;;;;;;19.77;54.60;101638.41;5053441;28;1247;-67
2021/05/25 01:33:47;;;;;;;;;;;;;;;19.77;54.80;101636.63;5071514;28;1001;-68
2021/05/25 01:36:32;;;;;;;;;;;;;;;19.77;54.75;101641.06;5071635;28;1926;-68
2021/05/25 01:39:17;;;;;;;;;;;;;;;19.76;54.74;101642.00;5071488;28;1020;-68
2021/05/25 01:42:03;;;;;;;;;;;;;;;19.69;54.80;101638.81;5056200;28;1229;-69
2021/05/25 01:44:48;;;;;;;;;;;;;;;19.72;54.71;101643.09;5071461;28;1051;-67
2021/05/25 01:47:33;;;;;;;;;;;;;;;19.69;54.85;101632.66;5071448;28;1278;-68
2021/05/25 01:50:19;;;;;;;;;;;;;;;19.69;54.74;101633.50;5071628;28;965;-68
2021/05/25 01:53:05;;;;;;;;;;;;;;;19.75;54.67;101638.50;5071286;28;730;-69
2021/05/25 01:55:51;;;;;;;;;;;;;;;19.73;54.63;101640.34;5056443;28;1219;-69
2021/05/25 01:58:37;;;;;;;;;;;;;;;19.76;54.48;101634.91;5071317;28;648;-68
2021/05/25 02:01:22;;;;;;;;;;;;;;;19.73;54.53;101640.34;5071345;28;1354;-68
2021/05/25 02:04:07;;;;;;;;;;;;;;;19.71;54.41;101636.94;5056035;28;906;-67
2021/05/25 02:06:53;;;;;;;;;;;;;;;19.69;54.27;101645.88;5071246;28;1282;-67
2021/05/25 02:09:39;;;;;;;;;;;;;;;19.64;54.44;101636.34;5071338;28;1082;-68
2021/05/25 02:12:24;;;;;;;;;;;;;;;19.66;54.34;101638.94;5071153;28;1271;-69
2021/05/25 02:15:10;;;;;;;;;;;;;;;19.67;54.26;101635.34;5071376;28;1115;-69
2021/05/25 02:17:56;;;;;;;;;;;;;;;19.67;54.29;101637.16;5071329;28;1902;-69
2021/05/25 02:20:43;;;;;;;;;;;;;;;19.66;54.37;101638.94;5070543;28;1411;-68
2021/05/25 02:23:28;;;;;;;;;;;;;;;19.62;54.50;101635.59;5071050;28;698;-68
2021/05/25 02:26:14;;;;;;;;;;;;;;;19.64;54.62;101641.63;5070759;28;1260;-67
2021/05/25 02:28:59;;;;;;;;;;;;;;;19.64;54.55;101638.13;5070690;28;1062;-69
2021/05/25 02:31:44;;;;;;;;;;;;;;;19.65;54.52;101631.94;5070933;28;1350;-68
2021/05/25 02:34:30;;;;;;;;;;;;;;;19.65;54.49;101642.50;5070539;28;1093;-69
2021/05/25 02:37:15;;;;;;;;;;;;;;;19.59;54.75;101641.00;5070167;28;1906;-69
2021/05/25 02:40:01;;;;;;;;;;;;;;;19.62;54.73;101634.72;5055238;28;1108;-69
2021/05/25 02:42:46;;;;;;;;;;;;;;;19.59;54.75;101632.22;5069655;28;1278;-71
2021/05/25 02:45:32;;;;;;;;;;;;;;;19.61;54.68;101625.94;5070828;28;1370;-69
2021/05/25 02:48:21;;;;;;;;;;;;;;;19.61;54.62;101635.63;5070801;28;722;-69
2021/05/25 02:51:06;;;;;;;;;;;;;;;19.61;54.70;101641.78;5070328;28;1283;-70
2021/05/25 02:53:51;;;;;;;;;;;;;;;19.57;54.64;101640.22;5054868;28;950;-68
2021/05/25 02:56:37;;;;;;;;;;;;;;;19.57;54.45;101642.00;5069332;28;1902;-68
2021/05/25 02:59:22;;;;;;;;;;;;;;;19.53;54.60;101645.72;5069960;28;1061;-68
2021/05/25 03:02:07;;;;;;;;;;;;;;;19.56;54.41;101640.28;5069907;28;1274;-68
2021/05/25 03:04:53;;;;;;;;;;;;;;;19.55;54.41;101650.00;5054831;28;1099;-68
2021/05/25 03:07:39;;;;;;;;;;;;;;;19.52;54.61;101642.22;5054977;28;1315;-69
2021/05/25 03:10:26;;;;;;;;;;;;;;;19.53;54.55;101638.66;5054869;28;1065;-68
2021/05/25 03:13:12;;;;;;;;;;;;;;;19.55;54.40;101641.22;5070040;28;617;-69
2021/05/25 03:15:57;;;;;;;;;;;;;;;19.55;54.41;101643.84;5070305;28;1248;-69
2021/05/25 03:18:43;;;;;;;;;;;;;;;19.54;54.38;101644.78;5069976;28;1965;-68
2021/05/25 03:21:28;;;;;;;;;;;;;;;19.57;54.24;101653.44;5054789;28;1240;-69
2021/05/25 03:24:16;;;;;;;;;;;;;;;19.53;54.30;101653.66;5069726;28;1138;-69
2021/05/25 03:27:01;;;;;;;;;;;;;;;19.55;54.04;101646.50;5054407;28;1276;-67
2021/05/25 03:29:46;;;;;;;;;;;;;;;19.51;54.28;101655.50;5069845;28;921;-67
2021/05/25 03:32:32;;;;;;;;;;;;;;;19.51;54.11;101656.38;5069489;28;1291;-67
2021/05/25 03:35:18;;;;;;;;;;;;;;;19.50;54.13;101656.44;5069323;28;1071;-68
2021/05/25 03:38:04;;;;;;;;;;;;;;;19.51;54.04;101653.72;5069174;28;1955;-67
2021/05/25 03:40:49;;;;;;;;;;;;;;;19.52;54.11;101654.56;5069178;28;1261;-67
2021/05/25 03:43:35;;;;;;;;;;;;;;;19.50;54.02;101653.78;5069420;28;707;-67
2021/05/25 03:46:20;;;;;;;;;;;;;;;19.51;54.02;101666.09;5069747;28;1381;-67
2021/05/25 03:49:06;;;;;;;;;;;;;;;19.53;53.94;101657.16;5068845;28;980;-67
2021/05/25 03:51:52;;;;;;;;;;;;;;;19.49;54.01;101660.84;5068600;28;1290;-67
2021/05/25 03:54:43;;;;;;;;;;;;;;;19.48;54.22;101668.88;5068672;28;1118;-67
2021/05/25 04:00:14;;;;;;;;;;;;;;;19.49;54.25;101678.47;5069212;28;1038;-66
2021/05/25 04:02:59;;;;;;;;;;;;;;;19.47;54.38;101680.34;5069262;28;683;-67
2021/05/25 04:05:45;;;;;;;;;;;;;;;19.45;54.40;101682.22;5069008;28;1244;-66
2021/05/25 04:08:31;;;;;;;;;;;;;;;19.44;54.38;101693.69;5069636;28;648;-67
2021/05/25 04:11:17;;;;;;;;;;;;;;;19.47;54.57;101690.91;5069256;28;1272;-66
2021/05/25 04:14:03;;;;;;;;;;;;;;;19.46;54.40;101694.47;5069364;28;1200;-66
2021/05/25 04:16:48;;;;;;;;;;;;;;;19.44;54.62;101691.06;5069043;28;1987;-67
2021/05/25 04:19:33;;;;;;;;;;;;;;;19.45;54.62;101691.00;5069241;28;1045;-66
2021/05/25 04:22:19;;;;;;;;;;;;;;;19.44;54.68;101696.34;5068728;28;1271;-67
2021/05/25 04:25:05;;;;;;;;;;;;;;;19.45;54.70;101698.06;5053468;28;928;-67
2021/05/25 04:27:50;;;;;;;;;;;;;;;19.44;54.71;101697.22;5053807;28;1308;-67
2021/05/25 04:30:35;;;;;;;;;;;;;;;19.44;54.60;101696.34;5053471;28;1250;-68
2021/05/25 04:33:21;;;;;;;;;;;;;;;19.43;54.76;101699.91;5068733;28;691;-67
2021/05/25 04:36:06;;;;;;;;;;;;;;;19.43;54.64;101706.03;5068980;28;1324;-67
2021/05/25 04:38:51;;;;;;;;;;;;;;;19.44;54.73;101704.28;5068294;28;1977;-67
2021/05/25 04:41:37;;;;;;;;;;;;;;;19.44;54.71;101710.41;5068984;28;1355;-68
2021/05/25 04:44:22;;;;;;;;;;;;;;;19.43;54.71;101716.63;5068529;28;1061;-67
2021/05/25 04:47:07;;;;;;;;;;;;;;;19.40;54.85;101721.19;5068615;28;1287;-69
2021/05/25 04:49:53;;;;;;;;;;;;;;;19.42;54.79;101727.28;5068581;28;1038;-68
2021/05/25 04:52:39;;;;;;;;;;;;;;;19.42;54.96;101727.28;5053058;28;1297;-68
2021/05/25 04:55:24;;;;;;;;;;;;;;;19.39;55.03;101732.66;5068441;28;957;-68
2021/05/25 04:58:10;;;;;;;;;;;;;;;19.40;55.08;101735.25;5068496;28;1902;-68
2021/05/25 05:00:55;;;;;;;;;;;;;;;19.41;55.17;101738.75;5053255;28;1285;-67
2021/05/25 05:03:40;;;;;;;;;;;;;;;19.39;55.20;101746.75;5068494;28;610;-67
2021/05/25 05:06:25;;;;;;;;;;;;;;;19.38;55.22;101760.00;5055433;28;1269;-67
2021/05/25 05:09:11;;;;;;;;;;;;;;;19.42;55.12;101756.34;5071751;28;1100;-68
2021/05/25 05:11:56;;;;;;;;;;;;;;;19.44;55.05;101757.97;5071725;28;1382;-68
2021/05/25 05:14:41;;;;;;;;;;;;;;;19.34;55.31;101758.41;5072351;28;1065;-69
2021/05/25 05:17:28;;;;;;;;;;;;;;;19.36;55.13;101759.22;5071660;28;2066;-69
2021/05/25 05:20:14;;;;;;;;;;;;;;;19.37;55.27;101763.56;5072112;28;1038;-68
2021/05/25 05:22:59;;;;;;;;;;;;;;;19.39;55.21;101761.72;5070453;28;1514;-68
2021/05/25 05:25:44;;;;;;;;;;;;;;;19.38;55.27;101765.28;5035753;28;1466;-69
2021/05/25 05:28:30;;;;;;;;;;;;;;;19.40;55.39;101761.66;5035957;28;672;-71
2021/05/25 05:31:15;;;;;;;;;;;;;;;19.40;55.41;101766.09;5035303;28;1330;-71
2021/05/25 05:34:01;;;;;;;;;;;;;;;19.47;55.59;101768.41;5050927;28;1048;-69
2021/05/25 05:36:47;;;;;;;;;;;;;;;19.54;55.89;101782.22;5035790;28;1688;-69
2021/05/25 05:39:33;;;;;;;;;;;;;;;19.59;55.87;101780.22;5050790;28;1030;-69
2021/05/25 05:42:18;;;;;;;;;;;;;;;19.70;55.79;101771.84;5050739;28;1268;-68
2021/05/25 05:45:03;;;;;;;;;;;;;;;19.86;55.61;101780.75;5050218;28;983;-66
2021/05/25 05:47:49;;;;;;;;;;;;;;;19.91;55.69;101781.44;5050779;28;1308;-65
2021/05/25 05:50:34;;;;;;;;;;;;;;;19.92;55.86;101788.41;5050712;28;1212;-65
2021/05/25 05:53:20;;;;;;;;;;;;;;;19.93;55.97;101791.00;5050615;28;674;-64
2021/05/25 05:56:05;;;;;;;;;;;;;;;19.96;56.00;101790.00;5050541;28;1290;-63
2021/05/25 05:58:51;;;;;;;;;;;;;;;20.02;56.04;101787.09;5050198;28;1971;-65
2021/05/25 06:01:37;;;;;;;;;;;;;;;20.07;56.09;101791.22;5034928;28;1380;-65
2021/05/25 06:04:22;;;;;;;;;;;;;;;20.10;56.41;101793.72;5035046;28;1137;-65
2021/05/25 06:07:07;;;;;;;;;;;;;;;20.07;56.67;101787.72;5048988;28;1272;-66
2021/05/25 06:09:55;;;;;;;;;;;;;;;20.06;56.97;101786.03;5048538;28;1080;-65
2021/05/25 06:12:41;;;;;;;;;;;;;;;20.10;56.81;101791.09;5053312;28;1559;-65
2021/05/25 06:15:26;;;;;;;;;;;;;;;20.14;56.88;101797.97;5066675;28;1499;-68
2021/05/25 06:18:12;;;;;;;;;;;;;;;20.14;57.13;101797.97;5069186;28;1906;-67
2021/05/25 06:20:58;;;;;;;;;;;;;;;20.14;57.19;101797.97;5069935;28;1397;-67
2021/05/25 06:23:43;;;;;;;;;;;;;;;20.14;57.17;101800.59;5067833;28;1420;-65
2021/05/25 06:26:29;;;;;;;;;;;;;;;20.15;57.28;101812.88;5068379;28;1394;-65
2021/05/25 06:29:14;;;;;;;;;;;;;;;20.18;57.22;101806.63;5053803;28;1424;-64
2021/05/25 06:32:01;;;;;;;;;;;;;;;20.24;57.20;101816.03;5065502;28;1510;-64
2021/05/25 06:34:48;;;;;;;;;;;;;;;20.22;57.21;101810.81;5066115;28;1401;-64
2021/05/25 06:37:33;;;;;;;;;;;;;;;20.23;57.36;101817.81;5066646;28;1933;-63
2021/05/25 06:40:18;;;;;;;;;;;;;;;20.29;57.44;101822.88;5068794;28;1309;-62
2021/05/25 06:43:04;;;;;;;;;;;;;;;20.37;57.42;101823.34;5061372;28;660;-62
2021/05/25 06:45:49;;;;;;;;;;;;;;;20.44;57.90;101826.59;5069308;28;1204;-63
2021/05/25 06:48:35;;;;;;;;;;;;;;;20.40;58.64;101835.59;5068632;28;657;-66
2021/05/25 06:51:20;;;;;;;;;;;;;;;20.39;58.71;101832.09;5069494;28;1287;-65
2021/05/25 06:54:07;;;;;;;;;;;;;;;20.40;58.91;101838.22;5069029;28;1104;-68
2021/05/25 06:56:52;;;;;;;;;;;;;;;20.40;58.47;101843.53;5068829;28;1343;-67
2021/05/25 06:59:37;;;;;;;;;;;;;;;20.54;58.72;101846.41;5069181;28;1901;-67
2021/05/25 07:02:23;;;;;;;;;;;;;;;20.61;58.39;101850.44;5067149;28;1996;-64
2021/05/25 07:05:09;;;;;;;;;;;;;;;20.55;58.41;101848.97;5059842;28;1106;-66
2021/05/25 07:07:54;;;;;;;;;;;;;;;20.51;58.25;101859.78;5068222;28;1209;-66
2021/05/25 07:10:40;;;;;;;;;;;;;;;20.47;58.32;101864.34;5068743;28;1306;-65
2021/05/25 07:13:25;;;;;;;;;;;;;;;20.45;58.49;101868.00;5068397;28;667;-65
2021/05/25 07:16:11;;;;;;;;;;;;;;;20.46;58.46;101872.34;5068418;28;1410;-65
2021/05/25 07:18:57;;;;;;;;;;;;;;;20.45;58.38;101874.16;5067526;28;1963;-66
2021/05/25 07:21:43;;;;;;;;;;;;;;;20.45;58.45;101883.88;5067745;28;1354;-66
2021/05/25 07:24:28;;;;;;;;;;;;;;;20.47;58.21;101882.00;5067997;28;1141;-66
2021/05/25 07:27:13;;;;;;;;;;;;;;;20.48;58.29;101878.44;5067987;28;1260;-66
2021/05/25 07:29:58;;;;;;;;;;;;;;;20.48;58.15;101883.75;5068299;28;1050;-66
2021/05/25 07:32:44;;;;;;;;;;;;;;;20.48;58.13;101887.25;5067681;28;1367;-65
2021/05/25 07:35:31;;;;;;;;;;;;;;;20.49;58.23;101881.00;5068231;28;1271;-66
2021/05/25 07:38:16;;;;;;;;;;;;;;;20.51;58.06;101888.91;5046873;28;1902;-65
2021/05/25 07:41:02;;;;;;;;;;;;;;;20.52;58.13;101888.81;5062290;28;1492;-65
2021/05/25 07:43:47;;;;;;;;;;;;;;;20.52;57.89;101895.88;5067444;28;1040;-65
2021/05/25 07:46:33;;;;;;;;;;;;;;;20.58;58.44;101892.94;5067854;28;1217;-64
2021/05/25 07:49:18;;;;;;;;;;;;;;;20.53;58.34;101894.97;5068036;28;1058;-65
2021/05/25 07:52:08;;;;;;;;;;;;;;;20.59;59.79;101899.97;5067128;28;1416;-66
2021/05/25 07:54:53;;;;;;;;;;;;;;;20.59;59.76;101892.03;5067308;28;1236;-68
2021/05/25 07:57:40;;;;;;;;;;;;;;;20.54;59.04;101900.22;5067297;28;1905;-67
2021/05/25 08:00:27;;;;;;;;;;;;;;;20.61;58.59;101906.03;5067235;28;1307;-65
2021/05/25 08:03:13;;;;;;;;;;;;;;;20.65;59.35;101905.84;5067381;28;679;-65
2021/05/25 08:05:59;;;;;;;;;;;;;;;20.60;60.27;101914.94;5066621;28;1460;-66
2021/05/25 08:08:44;;;;;;;;;;;;;;;20.57;61.13;101918.59;5067595;28;658;-65
2021/05/25 08:11:30;;;;;;;;;;;;;;;20.56;60.50;101916.00;5067143;28;1398;-65
2021/05/25 08:14:16;;;;;;;;;;;;;;;20.54;59.64;101909.94;5067267;28;1133;-63
2021/05/25 08:17:06;;;;;;;;;;;;;;;20.55;60.65;101909.84;5067070;28;1311;-63
2021/05/25 08:19:53;;;;;;;;;;;;;;;20.55;60.46;101911.63;5067514;28;1997;-64
2021/05/25 08:22:38;;;;;;;;;;;;;;;20.55;59.79;101903.69;5065978;28;1287;-64
2021/05/25 08:25:26;;;;;;;;;;;;;;;20.55;59.47;101907.19;5062255;28;1523;-64
2021/05/25 08:28:13;;;;;;;;;;;;;;;20.55;59.30;101901.91;5067094;28;628;-65
2021/05/25 08:30:58;;;;;;;;;;;;;;;20.55;59.10;101901.91;5051880;28;1295;-65
2021/05/25 08:33:44;;;;;;;;;;;;;;;20.56;60.04;101906.28;5067177;28;691;-63
2021/05/25 08:36:30;;;;;;;;;;;;;;;20.55;58.38;101899.25;5066956;28;1300;-66
2021/05/25 08:39:16;;;;;;;;;;;;;;;20.55;58.07;101907.19;5051695;28;1902;-64
2021/05/25 08:42:01;;;;;;;;;;;;;;;20.64;59.02;101911.19;5070953;28;1369;-64
2021/05/25 08:44:46;;;;;;;;;;;;;;;20.63;60.18;101912.16;5070934;28;1129;-66
2021/05/25 08:47:33;;;;;;;;;;;;;;;20.61;60.22;101914.84;5070880;28;1371;-66
2021/05/25 08:50:21;;;;;;;;;;;;;;;20.60;59.32;101922.88;5071171;28;958;-65
2021/05/25 08:53:06;;;;;;;;;;;;;;;20.59;59.41;101918.50;5071042;28;664;-65
2021/05/25 08:55:52;;;;;;;;;;;;;;;20.61;59.12;101921.94;5055866;28;1165;-66
2021/05/25 08:58:37;;;;;;;;;;;;;;;20.65;58.48;101918.22;5055738;28;1973;-65
2021/05/25 09:01:23;;;;;;;;;;;;;;;20.68;59.28;101916.28;5070984;28;1268;-65
2021/05/25 09:04:12;;;;;;;;;;;;;;;20.67;59.81;101924.31;5070756;28;1138;-64
2021/05/25 09:06:57;;;;;;;;;;;;;;;20.64;59.19;101932.38;5070995;28;1323;-64
2021/05/25 09:09:52;;;;;;;;;;;;;;;20.64;59.40;101940.31;5070642;28;1129;-65
2021/05/25 09:12:39;;;;;;;;;;;;;;;20.64;59.28;101940.31;5051032;28;1409;-64
2021/05/25 09:15:35;;;;;;;;;;;;;;;20.64;59.80;101940.31;5052449;28;1613;-63
2021/05/25 09:18:28;;;;;;;;;;;;;;;20.69;58.52;101946.28;5076051;28;2050;-64
2021/05/25 09:21:27;;;;;;;;;;;;;;;20.67;58.28;101943.69;5084158;28;1494;-64
2021/05/25 09:24:13;;;;;;;;;;;;;;;20.66;58.84;101944.63;5086338;28;1565;-64
2021/05/25 09:26:59;;;;;;;;;;;;;;;20.64;58.74;101946.47;5070334;28;1367;-64
2021/05/25 09:29:48;;;;;;;;;;;;;;;20.64;58.06;101945.63;5070609;28;1115;-63
2021/05/25 09:32:37;;;;;;;;;;;;;;;20.64;58.25;101948.25;5072364;28;1561;-63
2021/05/25 09:35:24;;;;;;;;;;;;;;;20.63;58.15;101947.44;5090311;28;1168;-63
2021/05/25 09:38:10;;;;;;;;;;;;;;;20.63;57.97;101943.91;5090559;28;1968;-63
2021/05/25 09:41:00;;;;;;;;;;;;;;;20.62;57.83;101942.19;5090898;28;1188;-62
2021/05/25 09:43:53;;;;;;;;;;;;;;;20.62;58.28;101940.41;5090100;28;1099;-64
2021/05/25 09:46:38;;;;;;;;;;;;;;;20.63;57.84;101947.44;5074561;28;1274;-63
2021/05/25 09:49:23;;;;;;;;;;;;;;;20.62;57.98;101951.00;5089642;28;1643;-63
2021/05/25 09:52:11;;;;;;;;;;;;;;;20.62;57.91;101947.47;5067879;28;1342;-63
2021/05/25 09:55:07;;;;;;;;;;;;;;;20.62;57.98;101945.69;5069693;28;1143;-63
2021/05/25 09:57:56;;;;;;;;;;;;;;;20.63;58.29;101947.44;5069536;28;652;-63
2021/05/25 10:00:44;;;;;;;;;;;;;;;20.63;58.22;101947.44;5069964;28;1203;-63
2021/05/25 10:03:42;;;;;;;;;;;;;;;20.62;58.44;101947.47;5069846;28;672;-65
2021/05/25 10:06:27;;;;;;;;;;;;;;;20.62;57.79;101944.84;5069360;28;1290;-65
2021/05/25 10:09:13;;;;;;;;;;;;;;;20.62;57.56;101945.69;5069306;28;1029;-64
2021/05/25 10:11:59;;;;;;;;;;;;;;;20.62;57.57;101951.00;5069583;28;1377;-63
2021/05/25 10:14:44;;;;;;;;;;;;;;;20.62;57.81;101945.69;5069003;28;1542;-63
2021/05/25 10:17:43;;;;;;;;;;;;;;;20.62;57.65;101951.00;5065477;28;1374;-65
2021/05/25 10:20:28;;;;;;;;;;;;;;;20.60;56.99;101952.00;5069186;28;1902;-64
2021/05/25 10:23:29;;;;;;;;;;;;;;;20.68;57.96;101949.84;5069265;28;660;-66
2021/05/25 10:26:18;;;;;;;;;;;;;;;20.71;57.80;101952.34;5048945;28;1346;-65
2021/05/25 10:29:04;;;;;;;;;;;;;;;20.71;57.93;101947.06;5049436;28;770;-65
2021/05/25 10:31:56;;;;;;;;;;;;;;;20.67;57.93;101951.63;5034065;28;1299;-65
2021/05/25 10:34:43;;;;;;;;;;;;;;;20.66;57.36;101947.28;5033764;28;697;-65
2021/05/25 10:37:29;;;;;;;;;;;;;;;20.69;58.11;101955.09;5033920;28;1528;-65
2021/05/25 10:40:14;;;;;;;;;;;;;;;20.66;57.83;101947.28;5063583;28;1997;-66
2021/05/25 10:43:19;;;;;;;;;;;;;;;20.65;57.22;101950.84;5068620;28;1004;-66
2021/05/25 10:46:18;;;;;;;;;;;;;;;20.66;57.10;101951.72;5049084;28;1367;-66
2021/05/25 10:51:52;;;;;;;;;;;;;;;20.67;57.46;101945.50;5068510;28;1248;-65
2021/05/25 10:54:45;;;;;;;;;;;;;;;20.67;57.20;101942.84;5068180;28;969;-66
2021/05/25 10:57:31;;;;;;;;;;;;;;;20.67;57.23;101942.84;5068749;28;1280;-67
2021/05/25 11:00:17;;;;;;;;;;;;;;;20.73;57.33;101953.16;5067755;28;1910;-65
2021/05/25 11:03:04;;;;;;;;;;;;;;;20.77;57.98;101949.41;5067679;28;958;-65
2021/05/25 11:05:49;;;;;;;;;;;;;;;20.77;57.62;101945.91;5066558;28;1337;-68
2021/05/25 11:08:38;;;;;;;;;;;;;;;20.75;57.70;101935.41;5067491;28;897;-66
2021/05/25 11:11:28;;;;;;;;;;;;;;;20.76;57.52;101936.28;5066519;28;1433;-67
2021/05/25 11:14:14;;;;;;;;;;;;;;;20.77;57.51;101937.97;5067317;28;984;-67
2021/05/25 11:17:19;;;;;;;;;;;;;;;20.77;57.97;101932.66;5067586;28;1427;-66
2021/05/25 11:20:24;;;;;;;;;;;;;;;20.77;57.84;101933.53;5063861;28;1902;-68
2021/05/25 11:23:28;;;;;;;;;;;;;;;20.80;57.89;101920.16;5067129;28;1071;-67
2021/05/25 11:26:32;;;;;;;;;;;;;;;20.80;57.69;101928.09;5047669;28;1298;-68
2021/05/25 11:29:19;;;;;;;;;;;;;;;20.79;57.54;101923.75;5057688;28;981;-67
2021/05/25 11:32:24;;;;;;;;;;;;;;;20.77;57.75;101925.59;5066726;28;1425;-67
2021/05/25 11:35:11;;;;;;;;;;;;;;;20.77;57.87;101924.72;5066674;28;1009;-66
2021/05/25 11:37:59;;;;;;;;;;;;;;;20.77;57.56;101920.28;5066635;28;1425;-65
2021/05/25 11:40:44;;;;;;;;;;;;;;;20.77;57.70;101916.78;5047297;28;1981;-65
2021/05/25 11:43:29;;;;;;;;;;;;;;;20.81;57.58;101921.00;5051112;28;635;-65
2021/05/25 11:46:15;;;;;;;;;;;;;;;20.81;57.89;101919.22;5066767;28;1307;-67
2021/05/25 11:49:04;;;;;;;;;;;;;;;20.80;57.70;101916.63;5066422;28;977;-64
2021/05/25 11:51:49;;;;;;;;;;;;;;;20.79;57.96;101909.66;5066659;28;1240;-64
2021/05/25 11:54:35;;;;;;;;;;;;;;;20.83;57.70;101908.53;5066664;28;1024;-65
2021/05/25 11:57:23;;;;;;;;;;;;;;;20.80;58.19;101906.03;5067319;28;1378;-65
2021/05/25 12:00:12;;;;;;;;;;;;;;;20.79;57.91;101909.66;5066372;28;1963;-65
2021/05/25 12:02:59;;;;;;;;;;;;;;;20.76;57.94;101902.72;5063753;28;1178;-67
2021/05/25 12:05:45;;;;;;;;;;;;;;;20.79;58.12;101889.31;5053670;28;1430;-66
2021/05/25 12:08:30;;;;;;;;;;;;;;;20.81;57.90;101897.19;5066671;28;1013;-66
2021/05/25 12:11:33;;;;;;;;;;;;;;;20.80;57.69;101888.38;5065171;28;1384;-65
2021/05/25 12:14:26;;;;;;;;;;;;;;;20.79;57.73;101885.81;5063145;28;731;-64
2021/05/25 12:17:19;;;;;;;;;;;;;;;20.79;57.07;101878.72;5051077;28;1287;-65
2021/05/25 12:20:06;;;;;;;;;;;;;;;20.80;56.55;101876.91;5050654;28;1902;-67
2021/05/25 12:22:53;;;;;;;;;;;;;;;20.92;55.20;101874.53;5066275;28;1460;-65
2021/05/25 12:25:39;;;;;;;;;;;;;;;20.95;55.72;101882.34;5069744;28;1530;-63
2021/05/25 12:28:33;;;;;;;;;;;;;;;20.90;54.99;101880.84;5087290;28;674;-64
2021/05/25 12:31:20;;;;;;;;;;;;;;;20.89;54.83;101885.28;5072217;28;1400;-63
2021/05/25 12:34:06;;;;;;;;;;;;;;;20.89;54.80;101876.47;5087239;28;618;-63
2021/05/25 12:36:52;;;;;;;;;;;;;;;20.93;55.02;101880.69;5080246;28;1603;-63
2021/05/25 12:39:39;;;;;;;;;;;;;;;20.95;54.40;101879.69;5065434;28;1914;-63
2021/05/25 12:42:25;;;;;;;;;;;;;;;20.97;55.38;101885.78;5067181;28;1316;-63
2021/05/25 12:45:12;;;;;;;;;;;;;;;21.00;55.40;101887.44;5066395;28;1312;-64
2021/05/25 12:47:59;;;;;;;;;;;;;;;20.95;56.03;101879.69;5066196;28;1225;-64
2021/05/25 12:50:45;;;;;;;;;;;;;;;20.96;56.26;101876.13;5065935;28;1406;-67
2021/05/25 12:53:46;;;;;;;;;;;;;;;21.00;56.17;101874.19;5067242;28;1107;-67
2021/05/25 12:56:32;;;;;;;;;;;;;;;21.01;56.64;101867.94;5065465;28;1401;-67
2021/05/25 12:59:17;;;;;;;;;;;;;;;20.96;56.33;101865.53;5065864;28;1898;-65
2021/05/25 13:02:03;;;;;;;;;;;;;;;20.95;56.50;101868.22;5066498;28;1356;-66
2021/05/25 13:05:02;;;;;;;;;;;;;;;20.94;56.76;101866.53;5064205;28;1226;-65
2021/05/25 13:08:08;;;;;;;;;;;;;;;20.94;56.96;101869.19;5064019;28;1276;-65
2021/05/25 13:11:05;;;;;;;;;;;;;;;20.95;56.99;101866.44;5064100;28;1443;-66
2021/05/25 13:13:50;;;;;;;;;;;;;;;20.94;56.94;101859.44;5064614;28;1326;-66
2021/05/25 13:16:36;;;;;;;;;;;;;;;20.94;57.01;101851.50;5065829;28;1302;-66
2021/05/25 13:19:51;;;;;;;;;;;;;;;20.97;57.17;101869.03;5066124;28;1914;-67
2021/05/25 13:22:37;;;;;;;;;;;;;;;21.03;57.30;101861.66;5062316;28;1347;-64
2021/05/25 13:25:31;;;;;;;;;;;;;;;21.09;56.82;101860.53;5048281;28;1084;-64
2021/05/25 13:28:16;;;;;;;;;;;;;;;21.12;56.83;101855.06;5054125;28;1036;-65
2021/05/25 13:31:13;;;;;;;;;;;;;;;21.09;56.86;101845.47;5065623;28;1339;-66
2021/05/25 13:33:59;;;;;;;;;;;;;;;21.08;56.91;101843.75;5071878;28;1248;-64
2021/05/25 13:36:45;;;;;;;;;;;;;;;21.07;57.38;101855.25;5067473;28;1331;-64
2021/05/25 13:39:30;;;;;;;;;;;;;;;21.11;56.80;101838.31;5069945;28;1964;-64
2021/05/25 13:42:16;;;;;;;;;;;;;;;21.09;57.03;101837.53;5053320;28;1422;-64
2021/05/25 13:45:02;;;;;;;;;;;;;;;21.09;57.31;101834.03;5053752;28;1016;-65
2021/05/25 13:47:47;;;;;;;;;;;;;;;21.09;57.47;101834.03;5068249;28;1296;-66
2021/05/25 13:50:33;;;;;;;;;;;;;;;21.09;57.13;101834.03;5052928;28;1312;-65
2021/05/25 13:53:18;;;;;;;;;;;;;;;21.09;57.69;101837.53;5068778;28;912;-66
2021/05/25 13:56:09;;;;;;;;;;;;;;;21.10;57.45;101825.97;5068960;28;1311;-65
2021/05/25 13:58:57;;;;;;;;;;;;;;;21.09;57.27;101826.94;5068720;28;1038;-65
2021/05/25 14:01:43;;;;;;;;;;;;;;;21.08;57.13;101821.66;5069608;28;1337;-63
2021/05/25 14:04:28;;;;;;;;;;;;;;;21.09;57.31;101820.78;5067129;28;1225;-64
2021/05/25 14:07:16;;;;;;;;;;;;;;;21.08;57.24;101819.91;5067782;28;1319;-64
2021/05/25 14:10:02;;;;;;;;;;;;;;;21.06;57.27;101821.75;5068473;28;1070;-64
2021/05/25 14:12:48;;;;;;;;;;;;;;;21.06;57.41;101819.13;5067060;28;1414;-64
2021/05/25 14:15:36;;;;;;;;;;;;;;;21.06;57.39;101816.47;5052378;28;1331;-65
2021/05/25 14:18:22;;;;;;;;;;;;;;;21.05;57.24;101817.38;5068766;28;995;-65
2021/05/25 14:21:09;;;;;;;;;;;;;;;21.05;57.85;101817.38;5066760;28;1961;-64
2021/05/25 14:23:55;;;;;;;;;;;;;;;21.04;57.70;101798.91;5068341;28;1059;-64
2021/05/25 14:26:40;;;;;;;;;;;;;;;21.04;57.88;101805.06;5068507;28;1390;-64
2021/05/25 14:29:26;;;;;;;;;;;;;;;21.03;57.73;101790.13;5066084;28;1011;-65
2021/05/25 14:32:11;;;;;;;;;;;;;;;21.04;57.55;101791.81;5067034;28;1327;-63
2021/05/25 14:34:56;;;;;;;;;;;;;;;21.10;57.86;101788.91;5067671;28;1067;-64
2021/05/25 14:37:42;;;;;;;;;;;;;;;21.07;57.35;101783.72;5067762;28;1390;-65